Terminal Aerodrome Forecast
Issued by NWS Blacksburg, VA

Current Version | Previous Version | Graphics & Text | Print | Product List | Glossary On
Versions: 1 2 3 4 5 6 7 8 9 10 11 12 13 14 15 16 17 18 19 20 21 22 23 24 25 26
000
FTUS41 KRNK 100521
TAFBLF
TAF
KBLF 100521Z 1006/1106 26005KT P6SM FEW040 OVC080
     FM100800 VRB03KT 4SM BR SCT007 BKN060
     FM101400 VRB03KT P6SM SCT015 BKN100
     FM101700 22004KT P6SM VCSH BKN040
     FM110000 VRB03KT P6SM SCT035 BKN100=

USA.gov is the U.S. government's official web portal to all federal, state and local government web resources and services.